KJVL/JVL METAR and TAF weather

Enter ICAO airport designator
Station Type Date Time Source
KJVL METAR 2018/12/11 17:45 UTC NOAA

KJVL 111745Z 00000KT 6SM BR OVC250 00/M05 A3001


Station Type Date Time Source
KJVL Decoded METAR 2018/12/11 17:45 UTC NOAA

Janesville / Rock County, WI, United States (KJVL) 42-37N 089-02W
Dec 11, 2018 - 12:45 PM EST / 2018.12.11 1745 UTC
Wind: Calm:0
Visibility: 6 mile(s):0
Sky conditions: overcast
Weather: mist
Temperature: 32 F (0 C)
Dew Point: 23 F (-5 C)
Relative Humidity: 69%
Pressure (altimeter): 30.01 in. Hg (1016 hPa)
ob: KJVL 111745Z 00000KT 6SM BR OVC250 00/M05 A3001
cycle: 18

Station Type Date Time Source
KJVL TAF UTC NOAA

Error!


Example: see airport list